createdAt,value
2019-04-26T00:01:42.231Z,2.85
2019-04-26T00:04:16.239Z,1.72
2019-04-26T00:09:31.968Z,2.62
2019-04-26T00:12:18.590Z,2.42
2019-04-26T00:15:08.368Z,2.67
2019-04-26T00:17:46.800Z,1.57
2019-04-26T00:20:17.663Z,5.58
2019-04-26T00:22:46.628Z,3.80
2019-04-26T00:25:16.557Z,5.03
2019-04-26T00:27:47.236Z,2.10
2019-04-26T00:30:16.995Z,2.87
2019-04-26T00:32:46.519Z,4.87
2019-04-26T00:35:15.895Z,1.95
2019-04-26T00:37:44.835Z,1.98
2019-04-26T00:40:18.282Z,3.72
2019-04-26T00:42:46.868Z,5.72
2019-04-26T00:45:16.660Z,7.87
2019-04-26T00:47:48.134Z,1.87
2019-04-26T00:50:17.330Z,3.17
2019-04-26T00:52:47.576Z,3.50
2019-04-26T00:55:16.257Z,2.72
2019-04-26T00:57:46.902Z,5.65
2019-04-26T01:00:18.104Z,1.87
2019-04-26T01:02:51.069Z,3.42
2019-04-26T01:05:25.461Z,4.67
2019-04-26T01:07:55.945Z,1.25
2019-04-26T01:10:25.873Z,3.70
2019-04-26T01:12:54.924Z,2.90
2019-04-26T01:15:24.892Z,2.83
2019-04-26T01:17:54.539Z,2.95
2019-04-26T01:20:24.607Z,3.22
2019-04-26T01:22:54.100Z,2.85
2019-04-26T01:25:53.509Z,1.55
2019-04-26T01:28:30.249Z,2.17
2019-04-26T01:30:59.532Z,1.85
2019-04-26T01:33:30.211Z,2.12
2019-04-26T01:35:59.077Z,2.72
2019-04-26T01:38:27.835Z,2.70
2019-04-26T01:41:00.022Z,7.53
2019-04-26T01:43:46.127Z,1.85
2019-04-26T01:46:21.715Z,5.97
2019-04-26T01:49:01.701Z,5.67
2019-04-26T01:51:38.461Z,2.52
2019-04-26T01:54:09.651Z,1.72
2019-04-26T01:56:42.131Z,2.67
2019-04-26T01:59:12.009Z,2.55
2019-04-26T02:02:21.339Z,1.72
2019-04-26T02:04:55.677Z,3.02
2019-04-26T02:07:41.779Z,1.80
2019-04-26T02:10:12.438Z,2.62
2019-04-26T02:12:41.060Z,2.77
2019-04-26T02:15:11.627Z,2.90
2019-04-26T02:17:42.418Z,1.98
2019-04-26T02:20:23.220Z,1.98
2019-04-26T02:23:04.502Z,2.10
2019-04-26T02:25:34.600Z,2.00
2019-04-26T02:28:04.406Z,1.52
2019-04-26T02:30:34.647Z,2.12
2019-04-26T02:33:06.716Z,3.00
2019-04-26T02:35:35.889Z,2.87
2019-04-26T02:38:05.533Z,1.85
2019-04-26T02:40:36.841Z,1.55
2019-04-26T02:43:07.799Z,4.33
2019-04-26T02:46:02.981Z,2.08
2019-04-26T02:48:46.246Z,2.80
2019-04-26T02:51:19.030Z,2.80
2019-04-26T02:54:13.657Z,3.87
2019-04-26T02:56:44.223Z,2.77
2019-04-26T02:59:47.547Z,2.77
2019-04-26T03:02:30.154Z,2.25
2019-04-26T03:05:03.998Z,2.12
2019-04-26T03:07:53.882Z,4.90
2019-04-26T03:10:28.219Z,4.72
2019-04-26T03:12:58.423Z,3.17
2019-04-26T03:15:43.528Z,2.80
2019-04-26T03:18:35.615Z,3.87
2019-04-26T03:21:13.093Z,2.85
2019-04-26T03:23:58.209Z,2.27
2019-04-26T03:26:44.909Z,4.00
2019-04-26T03:29:46.078Z,5.28
2019-04-26T03:32:56.001Z,2.45
2019-04-26T03:35:56.903Z,2.33
2019-04-26T03:38:35.732Z,3.55
2019-04-26T03:41:27.159Z,3.50
2019-04-26T03:44:18.090Z,6.47
2019-04-26T03:46:50.877Z,4.45
2019-04-26T03:49:45.756Z,4.53
2019-04-26T03:52:45.428Z,4.42
2019-04-26T03:55:52.971Z,3.33
2019-04-26T03:59:23.395Z,2.77
2019-04-26T04:02:26.597Z,5.50
2019-04-26T04:05:17.785Z,3.80
2019-04-26T04:07:51.317Z,3.12
2019-04-26T04:10:24.662Z,7.65
2019-04-26T04:13:01.087Z,4.97
2019-04-26T04:15:40.400Z,3.37
2019-04-26T04:18:16.350Z,3.52
2019-04-26T04:21:11.679Z,4.35
2019-04-26T04:23:57.176Z,3.10
2019-04-26T04:26:39.079Z,4.30
2019-04-26T04:29:50.597Z,3.10
2019-04-26T04:32:32.303Z,3.27
2019-04-26T04:35:06.562Z,4.15
2019-04-26T04:38:04.244Z,7.83
2019-04-26T04:40:36.351Z,10.88
2019-04-26T04:43:25.284Z,7.50
2019-04-26T04:46:39.724Z,10.35
2019-04-26T04:49:27.156Z,9.00
2019-04-26T04:52:36.889Z,10.43
2019-04-26T04:55:13.548Z,7.72
2019-04-26T04:58:02.554Z,9.53
2019-04-26T05:00:57.314Z,8.48
2019-04-26T05:03:40.979Z,10.75
2019-04-26T05:06:34.361Z,14.15
2019-04-26T05:09:08.294Z,18.15
2019-04-26T05:11:50.051Z,19.12
2019-04-26T05:14:29.891Z,17.10
2019-04-26T05:17:20.291Z,14.93
2019-04-26T05:20:11.341Z,15.70
2019-04-26T05:23:03.755Z,17.17
2019-04-26T05:26:43.622Z,18.75
2019-04-26T05:30:08.060Z,18.70
2019-04-26T05:33:13.154Z,23.12
2019-04-26T05:36:01.558Z,20.37
2019-04-26T05:39:00.377Z,24.27
2019-04-26T05:42:08.140Z,23.57
2019-04-26T05:45:17.181Z,25.80
2019-04-26T05:48:08.459Z,25.50
2019-04-26T05:51:14.244Z,25.65
2019-04-26T05:54:24.916Z,23.52
2019-04-26T05:57:14.124Z,23.98
2019-04-26T06:00:18.106Z,25.97
2019-04-26T06:03:13.919Z,26.82
2019-04-26T06:06:26.296Z,25.62
2019-04-26T06:09:17.229Z,23.22
2019-04-26T06:11:56.620Z,24.52
2019-04-26T06:14:49.143Z,23.98
2019-04-26T06:18:23.675Z,25.57
2019-04-26T06:21:08.468Z,23.90
2019-04-26T06:24:10.178Z,23.35
2019-04-26T06:27:19.288Z,22.32
2019-04-26T06:29:59.624Z,26.52
2019-04-26T06:32:33.370Z,20.77
2019-04-26T06:37:47.599Z,26.02
2019-04-26T06:40:29.084Z,24.77
2019-04-26T06:43:08.035Z,21.27
2019-04-26T06:46:03.270Z,24.10
2019-04-26T06:48:45.420Z,20.52
2019-04-26T06:51:24.234Z,22.07
2019-04-26T06:54:16.124Z,20.20
2019-04-26T06:57:19.221Z,20.40
2019-04-26T07:00:08.749Z,25.15
2019-04-26T07:03:11.931Z,21.45
2019-04-26T07:05:44.825Z,28.30
2019-04-26T07:08:27.271Z,23.97
2019-04-26T07:12:07.905Z,21.65
2019-04-26T07:14:59.476Z,25.50
2019-04-26T07:18:22.150Z,25.95
2019-04-26T07:21:09.052Z,27.13
2019-04-26T07:24:19.423Z,25.52
2019-04-26T07:27:21.222Z,25.55
2019-04-26T07:30:14.547Z,28.00
2019-04-26T07:32:59.857Z,28.25
2019-04-26T07:35:37.558Z,28.05
2019-04-26T07:39:10.416Z,27.93
2019-04-26T07:41:56.222Z,25.15
2019-04-26T07:44:56.503Z,30.15
2019-04-26T07:48:18.202Z,29.80
2019-04-26T07:51:23.181Z,25.60
2019-04-26T07:54:01.152Z,26.27
2019-04-26T07:56:49.023Z,24.23
2019-04-26T07:59:40.501Z,25.00
2019-04-26T08:02:56.698Z,23.73
2019-04-26T08:05:40.803Z,23.12
2019-04-26T08:10:39.984Z,24.87
2019-04-26T08:13:11.682Z,23.32
2019-04-26T08:15:58.313Z,22.35
2019-04-26T08:18:37.525Z,20.90
2019-04-26T08:21:20.571Z,19.42
2019-04-26T08:23:57.842Z,19.00
2019-04-26T08:26:26.536Z,18.00
2019-04-26T08:29:00.699Z,18.50
2019-04-26T08:34:01.273Z,17.12
2019-04-26T08:36:34.040Z,15.90
2019-04-26T08:39:06.970Z,17.40
2019-04-26T08:41:39.200Z,20.40
2019-04-26T08:44:22.872Z,16.45
2019-04-26T08:47:19.800Z,19.32
2019-04-26T08:50:13.281Z,21.75
2019-04-26T08:52:40.381Z,19.15
2019-04-26T08:55:09.317Z,18.48
2019-04-26T08:57:40.137Z,22.60
2019-04-26T09:00:12.424Z,19.95
2019-04-26T09:03:10.785Z,16.90
2019-04-26T09:05:40.088Z,19.05
2019-04-26T09:08:12.079Z,18.17
2019-04-26T09:10:43.211Z,17.27
2019-04-26T09:13:13.461Z,18.48
2019-04-26T09:16:05.788Z,16.65
2019-04-26T09:18:43.675Z,18.50
2019-04-26T09:21:16.996Z,14.25
2019-04-26T09:24:08.390Z,19.05
2019-04-26T09:27:02.422Z,16.40
2019-04-26T09:29:36.082Z,14.60
2019-04-26T09:32:32.720Z,16.20
2019-04-26T09:35:01.595Z,14.78
2019-04-26T09:37:30.869Z,13.10
2019-04-26T09:40:09.619Z,14.63
2019-04-26T09:42:41.057Z,15.28
2019-04-26T09:45:27.881Z,13.32
2019-04-26T09:48:22.295Z,15.68
2019-04-26T09:50:55.263Z,12.03
2019-04-26T09:53:27.763Z,13.03
2019-04-26T09:55:56.344Z,13.15
2019-04-26T09:58:26.906Z,16.60
2019-04-26T10:00:56.731Z,10.78
2019-04-26T10:03:28.684Z,15.20
2019-04-26T10:05:57.627Z,8.50
2019-04-26T10:08:29.145Z,8.65
2019-04-26T10:10:59.091Z,10.18
2019-04-26T10:13:45.007Z,8.65
2019-04-26T10:16:33.483Z,14.33
2019-04-26T10:19:09.866Z,9.00
2019-04-26T10:21:39.048Z,7.05
2019-04-26T10:24:09.619Z,7.65
2019-04-26T10:26:39.427Z,9.05
2019-04-26T10:29:13.010Z,7.45
2019-04-26T10:31:43.108Z,16.00
2019-04-26T10:34:12.916Z,8.63
2019-04-26T10:36:43.703Z,9.23
2019-04-26T10:39:12.834Z,6.90
2019-04-26T10:41:41.554Z,7.85
2019-04-26T10:44:11.612Z,8.43
2019-04-26T10:46:54.870Z,5.60
2019-04-26T10:49:43.140Z,6.83
2019-04-26T10:52:28.496Z,7.87
2019-04-26T10:55:17.439Z,6.45
2019-04-26T10:57:46.791Z,8.73
2019-04-26T11:00:24.299Z,7.42
2019-04-26T11:02:52.858Z,6.03
2019-04-26T11:05:23.446Z,7.42
2019-04-26T11:07:53.420Z,6.35
2019-04-26T11:10:24.473Z,5.03
2019-04-26T11:12:53.240Z,5.37
2019-04-26T11:15:23.239Z,5.80
2019-04-26T11:17:51.785Z,5.85
2019-04-26T11:20:20.590Z,5.25
2019-04-26T11:22:50.660Z,8.55
2019-04-26T11:25:19.525Z,7.37
2019-04-26T11:27:48.681Z,6.50
2019-04-26T11:30:20.892Z,6.15
2019-04-26T11:32:47.969Z,8.48
2019-04-26T11:35:16.887Z,6.83
2019-04-26T11:37:50.769Z,8.40
2019-04-26T11:40:20.910Z,6.70
2019-04-26T11:42:49.632Z,8.90
2019-04-26T11:45:20.157Z,6.50
2019-04-26T11:47:56.216Z,7.35
2019-04-26T11:50:20.694Z,10.88
2019-04-26T11:52:49.642Z,7.08
2019-04-26T11:55:20.075Z,8.95
2019-04-26T11:57:50.875Z,8.00
2019-04-26T12:00:34.095Z,8.33
2019-04-26T12:03:05.011Z,7.13
2019-04-26T12:05:40.684Z,6.97
2019-04-26T12:08:12.455Z,7.45
2019-04-26T12:10:44.342Z,6.97
2019-04-26T12:13:11.333Z,8.23
2019-04-26T12:15:43.766Z,6.87
2019-04-26T12:18:11.649Z,5.42
2019-04-26T12:20:40.652Z,5.72
2019-04-26T12:23:13.711Z,7.33
2019-04-26T12:25:43.652Z,6.83
2019-04-26T12:28:11.454Z,7.70
2019-04-26T12:30:42.110Z,11.48
2019-04-26T12:33:10.665Z,9.15
2019-04-26T12:35:39.251Z,8.90
2019-04-26T12:38:09.185Z,10.08
2019-04-26T12:40:37.727Z,7.00
2019-04-26T12:43:08.600Z,8.13
2019-04-26T12:45:47.351Z,7.95
2019-04-26T12:48:17.634Z,14.03
2019-04-26T12:50:48.167Z,6.08
2019-04-26T12:53:18.122Z,6.92
2019-04-26T12:55:49.155Z,7.60
2019-04-26T12:58:17.560Z,8.48
2019-04-26T13:00:53.694Z,7.40
2019-04-26T13:03:20.639Z,13.50
2019-04-26T13:05:49.781Z,11.28
2019-04-26T13:08:18.980Z,7.50
2019-04-26T13:11:14.976Z,7.80
2019-04-26T13:13:46.689Z,8.13
2019-04-26T13:16:26.361Z,38.85
2019-04-26T13:18:58.261Z,12.10
2019-04-26T13:21:27.138Z,7.80
2019-04-26T13:23:55.694Z,7.87
2019-04-26T13:26:24.447Z,8.50
2019-04-26T13:28:57.013Z,12.75
2019-04-26T13:31:31.305Z,13.48
2019-04-26T13:33:58.369Z,8.55
2019-04-26T13:36:29.009Z,8.90
2019-04-26T13:38:57.826Z,15.30
2019-04-26T13:41:28.054Z,13.45
2019-04-26T13:43:57.125Z,11.53
2019-04-26T13:46:44.713Z,18.27
2019-04-26T13:49:21.143Z,10.10
2019-04-26T13:51:49.701Z,11.22
2019-04-26T13:54:21.037Z,10.58
2019-04-26T13:56:48.917Z,10.45
2019-04-26T13:59:17.466Z,10.93
2019-04-26T14:01:46.308Z,12.37
2019-04-26T14:04:15.221Z,11.55
2019-04-26T14:06:45.018Z,13.93
2019-04-26T14:09:16.669Z,12.40
2019-04-26T14:11:48.872Z,11.63
2019-04-26T14:14:17.840Z,13.22
2019-04-26T14:16:46.408Z,11.93
2019-04-26T14:19:16.779Z,14.07
2019-04-26T14:21:47.295Z,13.32
2019-04-26T14:24:53.074Z,12.93
2019-04-26T14:27:29.940Z,13.88
2019-04-26T14:30:02.454Z,14.68
2019-04-26T14:32:29.400Z,12.15
2019-04-26T14:35:01.565Z,14.70
2019-04-26T14:37:30.505Z,14.53
2019-04-26T14:40:16.597Z,13.28
2019-04-26T14:42:42.011Z,15.48
2019-04-26T14:45:07.322Z,15.32
2019-04-26T14:47:46.834Z,14.63
2019-04-26T14:50:13.813Z,15.75
2019-04-26T14:52:37.817Z,14.05
2019-04-26T14:55:06.562Z,16.07
2019-04-26T14:57:35.652Z,16.20
2019-04-26T15:00:05.034Z,16.25
2019-04-26T15:02:55.867Z,17.02
2019-04-26T15:05:50.570Z,17.40
2019-04-26T15:08:25.306Z,17.42
2019-04-26T15:11:00.969Z,18.23
2019-04-26T15:13:26.033Z,18.15
2019-04-26T15:15:54.619Z,22.70
2019-04-26T15:18:25.037Z,24.85
2019-04-26T15:20:57.376Z,22.67
2019-04-26T15:23:28.580Z,22.75
2019-04-26T15:25:59.396Z,22.87
2019-04-26T15:28:29.349Z,23.27
2019-04-26T15:30:58.309Z,20.43
2019-04-26T15:33:26.867Z,20.72
2019-04-26T15:35:56.160Z,21.23
2019-04-26T15:38:26.093Z,26.68
2019-04-26T15:41:11.298Z,26.68
2019-04-26T15:43:42.856Z,30.40
2019-04-26T15:46:24.293Z,30.75
2019-04-26T15:49:18.749Z,34.43
2019-04-26T15:51:47.685Z,39.05
2019-04-26T15:54:17.809Z,39.73
2019-04-26T15:56:49.427Z,43.50
2019-04-26T15:59:18.386Z,46.40
2019-04-26T16:01:49.368Z,43.52
2019-04-26T16:04:18.510Z,41.60
2019-04-26T16:06:52.194Z,51.90
2019-04-26T16:11:55.285Z,43.83
2019-04-26T16:14:24.894Z,43.78
2019-04-26T16:16:58.333Z,46.55
2019-04-26T16:19:27.839Z,44.50
2019-04-26T16:21:58.140Z,42.48
2019-04-26T16:24:27.909Z,43.35
2019-04-26T16:27:08.905Z,43.17
2019-04-26T16:30:03.757Z,47.67
2019-04-26T16:32:58.859Z,42.13
2019-04-26T16:35:29.917Z,51.13
2019-04-26T16:38:22.892Z,43.70
2019-04-26T16:40:53.536Z,47.45
2019-04-26T16:43:37.038Z,47.40
2019-04-26T16:46:02.137Z,44.18
2019-04-26T16:48:31.257Z,42.38
2019-04-26T16:51:08.554Z,48.85
2019-04-26T16:53:46.389Z,49.53
2019-04-26T16:56:05.492Z,47.73
2019-04-26T16:58:38.268Z,51.02
2019-04-26T17:01:10.091Z,47.73
2019-04-26T17:03:43.955Z,51.75
2019-04-26T17:06:11.449Z,51.10
2019-04-26T17:08:43.341Z,51.85
2019-04-26T17:11:12.418Z,51.68
2019-04-26T17:13:50.638Z,52.40
2019-04-26T17:16:19.935Z,51.77
2019-04-26T17:18:48.847Z,52.30
2019-04-26T17:21:22.336Z,46.90
2019-04-26T17:24:24.848Z,51.02
2019-04-26T17:26:59.799Z,58.30
2019-04-26T17:29:28.753Z,54.58
2019-04-26T17:32:00.475Z,55.95
2019-04-26T17:34:30.267Z,51.40
2019-04-26T17:37:09.388Z,52.05
2019-04-26T17:39:34.926Z,50.15
2019-04-26T17:42:05.651Z,59.08
2019-04-26T17:44:34.637Z,56.55
2019-04-26T17:47:08.301Z,53.55
2019-04-26T17:49:39.041Z,53.15
2019-04-26T17:52:06.900Z,52.67
2019-04-26T17:54:46.287Z,51.48
2019-04-26T17:57:08.885Z,54.27
2019-04-26T17:59:45.224Z,52.50
2019-04-26T18:02:20.620Z,54.88
2019-04-26T18:04:43.103Z,64.03
2019-04-26T18:07:34.723Z,53.25
2019-04-26T18:09:46.752Z,48.35
2019-04-26T18:12:17.752Z,53.63
2019-04-26T18:14:46.682Z,48.92
2019-04-26T18:17:27.495Z,49.05
2019-04-26T18:20:21.028Z,52.03
2019-04-26T18:22:54.764Z,50.15
2019-04-26T18:27:53.496Z,51.40
2019-04-26T18:30:24.688Z,55.78
2019-04-26T18:32:54.932Z,48.52
2019-04-26T18:35:25.914Z,55.48
2019-04-26T18:37:54.527Z,47.98
2019-04-26T18:40:23.466Z,53.17
2019-04-26T18:42:55.109Z,51.40
2019-04-26T18:45:29.674Z,48.17
2019-04-26T18:48:01.396Z,52.60
2019-04-26T18:50:28.417Z,52.48
2019-04-26T18:53:19.789Z,51.48
2019-04-26T18:55:48.942Z,51.90
2019-04-26T18:58:23.606Z,52.08
2019-04-26T19:00:57.346Z,52.65
2019-04-26T19:03:29.971Z,54.38
2019-04-26T19:05:58.510Z,55.08
2019-04-26T19:08:28.992Z,50.67
2019-04-26T19:11:03.353Z,55.90
2019-04-26T19:13:46.237Z,56.15
2019-04-26T19:16:34.394Z,53.55
2019-04-26T19:19:15.343Z,53.10
2019-04-26T19:21:47.416Z,55.60
2019-04-26T19:24:20.961Z,52.53
2019-04-26T19:26:52.349Z,52.13
2019-04-26T19:29:27.064Z,50.08
2019-04-26T19:31:52.205Z,50.45
2019-04-26T19:34:30.142Z,60.23
2019-04-26T19:36:59.771Z,58.65
2019-04-26T19:39:33.296Z,56.37
2019-04-26T19:42:02.506Z,61.00
2019-04-26T19:44:31.719Z,65.37
2019-04-26T19:47:27.135Z,62.48
2019-04-26T19:50:11.457Z,56.37
2019-04-26T19:52:57.866Z,57.80
2019-04-26T19:55:48.865Z,50.20
2019-04-26T19:58:20.601Z,50.03
2019-04-26T20:00:52.381Z,55.28
2019-04-26T20:03:24.714Z,60.50
2019-04-26T20:05:53.651Z,63.45
2019-04-26T20:08:23.656Z,62.08
2019-04-26T20:10:52.656Z,62.45
2019-04-26T20:13:22.034Z,67.58
2019-04-26T20:15:51.431Z,58.25
2019-04-26T20:18:22.462Z,59.90
2019-04-26T20:20:52.138Z,53.63
2019-04-26T20:23:22.851Z,58.80
2019-04-26T20:25:53.069Z,55.80
2019-04-26T20:28:22.778Z,56.85
2019-04-26T20:31:16.992Z,55.30
2019-04-26T20:33:47.760Z,60.23
2019-04-26T20:36:16.337Z,61.55
2019-04-26T20:38:47.423Z,57.90
2019-04-26T20:41:16.950Z,52.45
2019-04-26T20:43:56.560Z,53.05
2019-04-26T20:46:18.752Z,61.28
2019-04-26T20:48:52.012Z,61.88
2019-04-26T20:51:22.461Z,66.97
2019-04-26T20:53:51.465Z,64.42
2019-04-26T20:56:25.929Z,64.92
2019-04-26T20:58:57.447Z,69.67
2019-04-26T21:01:27.164Z,66.17
2019-04-26T21:03:59.819Z,71.05
2019-04-26T21:06:29.231Z,66.90
2019-04-26T21:09:06.029Z,58.40
2019-04-26T21:14:07.696Z,66.50
2019-04-26T21:16:37.213Z,61.02
2019-04-26T21:19:06.277Z,64.37
2019-04-26T21:21:36.988Z,63.87
2019-04-26T21:24:06.268Z,64.10
2019-04-26T21:27:01.652Z,63.00
2019-04-26T21:29:52.451Z,61.88
2019-04-26T21:32:35.469Z,62.88
2019-04-26T21:35:09.212Z,62.85
2019-04-26T21:37:43.137Z,67.20
2019-04-26T21:40:23.255Z,61.15
2019-04-26T21:43:00.484Z,67.35
2019-04-26T21:45:33.888Z,75.50
2019-04-26T21:48:06.819Z,61.08
2019-04-26T21:50:38.675Z,57.30
2019-04-26T21:53:07.032Z,62.23
2019-04-26T21:55:38.709Z,68.05
2019-04-26T21:58:08.285Z,64.22
2019-04-26T22:00:53.887Z,70.52
2019-04-26T22:03:24.647Z,61.42
2019-04-26T22:05:56.633Z,59.70
2019-04-26T22:08:33.001Z,57.30
2019-04-26T22:11:03.615Z,56.90
2019-04-26T22:13:49.683Z,67.03
2019-04-26T22:16:34.226Z,63.30
2019-04-26T22:19:18.198Z,65.55
2019-04-26T22:22:05.787Z,61.33
2019-04-26T22:24:36.153Z,71.17
2019-04-26T22:27:04.693Z,63.33
2019-04-26T22:29:35.343Z,63.05
2019-04-26T22:32:07.203Z,64.12
2019-04-26T22:34:37.333Z,65.92
2019-04-26T22:37:11.324Z,66.53
2019-04-26T22:39:39.829Z,82.45
2019-04-26T22:42:10.088Z,63.23
2019-04-26T22:44:45.604Z,65.10
2019-04-26T22:47:24.117Z,66.45
2019-04-26T22:49:57.469Z,66.45
2019-04-26T22:52:27.439Z,81.47
2019-04-26T22:55:01.577Z,79.53
2019-04-26T22:57:33.381Z,62.33
2019-04-26T23:00:01.994Z,66.37
2019-04-26T23:02:31.116Z,65.72
2019-04-26T23:05:00.614Z,72.90
2019-04-26T23:07:30.345Z,78.97
2019-04-26T23:09:59.261Z,74.25
2019-04-26T23:12:35.437Z,76.70
2019-04-26T23:15:30.191Z,69.95
2019-04-26T23:18:13.757Z,63.42
2019-04-26T23:20:58.134Z,78.05
2019-04-26T23:23:26.906Z,78.00
2019-04-26T23:26:02.373Z,72.92
2019-04-26T23:28:36.826Z,79.03
2019-04-26T23:31:08.170Z,76.47
2019-04-26T23:33:36.694Z,65.00
2019-04-26T23:36:08.039Z,63.83
2019-04-26T23:38:38.165Z,79.22
2019-04-26T23:41:07.521Z,74.42
2019-04-26T23:43:36.191Z,86.22
2019-04-26T23:46:05.041Z,78.78
2019-04-26T23:48:35.903Z,76.25
2019-04-26T23:51:08.197Z,79.15
2019-04-26T23:53:35.940Z,76.92
2019-04-26T23:56:04.869Z,75.55
2019-04-26T23:58:40.235Z,71.62
